sensor_id;sensor_type;location;lat;lon;timestamp;P1;durP1;ratioP1;P2;durP2;ratioP2
22677;SDS011;26259;50.214;18.620;2022-09-25T00:00:28;153.63;;;95.33;;
22677;SDS011;26259;50.214;18.620;2022-09-25T00:02:54;165.93;;;109.60;;
22677;SDS011;26259;50.214;18.620;2022-09-25T00:05:19;168.17;;;113.13;;
22677;SDS011;26259;50.214;18.620;2022-09-25T00:07:45;166.50;;;108.83;;
22677;SDS011;26259;50.214;18.620;2022-09-25T00:12:52;152.63;;;96.80;;
22677;SDS011;26259;50.214;18.620;2022-09-25T00:15:17;147.33;;;92.17;;
22677;SDS011;26259;50.214;18.620;2022-09-25T00:17:43;140.80;;;90.00;;
22677;SDS011;26259;50.214;18.620;2022-09-25T00:20:09;149.13;;;91.13;;
22677;SDS011;26259;50.214;18.620;2022-09-25T00:22:34;139.63;;;90.23;;
22677;SDS011;26259;50.214;18.620;2022-09-25T00:25:00;146.50;;;92.43;;
22677;SDS011;26259;50.214;18.620;2022-09-25T00:27:26;146.47;;;92.43;;
22677;SDS011;26259;50.214;18.620;2022-09-25T00:29:52;134.10;;;86.47;;
22677;SDS011;26259;50.214;18.620;2022-09-25T00:32:18;152.20;;;95.50;;
22677;SDS011;26259;50.214;18.620;2022-09-25T00:34:43;136.30;;;88.60;;
22677;SDS011;26259;50.214;18.620;2022-09-25T00:37:09;141.90;;;87.97;;
22677;SDS011;26259;50.214;18.620;2022-09-25T00:39:35;147.73;;;91.60;;
22677;SDS011;26259;50.214;18.620;2022-09-25T00:42:00;137.97;;;85.37;;
22677;SDS011;26259;50.214;18.620;2022-09-25T00:47:07;132.27;;;82.97;;
22677;SDS011;26259;50.214;18.620;2022-09-25T00:49:35;141.87;;;87.90;;
22677;SDS011;26259;50.214;18.620;2022-09-25T00:52:04;119.63;;;77.20;;
22677;SDS011;26259;50.214;18.620;2022-09-25T00:54:37;114.80;;;74.10;;
22677;SDS011;26259;50.214;18.620;2022-09-25T00:57:12;114.23;;;72.77;;
22677;SDS011;26259;50.214;18.620;2022-09-25T00:59:42;119.87;;;76.90;;
22677;SDS011;26259;50.214;18.620;2022-09-25T01:02:13;122.77;;;76.33;;
22677;SDS011;26259;50.214;18.620;2022-09-25T01:04:44;117.27;;;74.40;;
22677;SDS011;26259;50.214;18.620;2022-09-25T01:07:12;119.23;;;78.37;;
22677;SDS011;26259;50.214;18.620;2022-09-25T01:09:38;126.37;;;78.97;;
22677;SDS011;26259;50.214;18.620;2022-09-25T01:12:05;118.10;;;75.67;;
22677;SDS011;26259;50.214;18.620;2022-09-25T01:14:30;112.37;;;71.77;;
22677;SDS011;26259;50.214;18.620;2022-09-25T01:22:16;119.37;;;77.50;;
22677;SDS011;26259;50.214;18.620;2022-09-25T01:30:41;114.70;;;75.20;;
22677;SDS011;26259;50.214;18.620;2022-09-25T01:33:13;115.77;;;73.37;;
22677;SDS011;26259;50.214;18.620;2022-09-25T01:36:00;115.30;;;74.27;;
22677;SDS011;26259;50.214;18.620;2022-09-25T01:38:46;122.03;;;77.00;;
22677;SDS011;26259;50.214;18.620;2022-09-25T01:41:26;115.70;;;74.73;;
22677;SDS011;26259;50.214;18.620;2022-09-25T01:44:31;105.70;;;68.17;;
22677;SDS011;26259;50.214;18.620;2022-09-25T01:49:34;101.80;;;67.77;;
22677;SDS011;26259;50.214;18.620;2022-09-25T01:52:17;97.33;;;65.33;;
22677;SDS011;26259;50.214;18.620;2022-09-25T01:54:48;104.10;;;64.23;;
22677;SDS011;26259;50.214;18.620;2022-09-25T01:57:21;101.40;;;65.50;;
22677;SDS011;26259;50.214;18.620;2022-09-25T01:59:59;95.70;;;63.83;;
22677;SDS011;26259;50.214;18.620;2022-09-25T02:02:37;95.63;;;63.60;;
22677;SDS011;26259;50.214;18.620;2022-09-25T02:05:09;98.97;;;66.50;;
22677;SDS011;26259;50.214;18.620;2022-09-25T02:07:43;95.50;;;65.17;;
22677;SDS011;26259;50.214;18.620;2022-09-25T02:10:22;101.63;;;68.70;;
22677;SDS011;26259;50.214;18.620;2022-09-25T02:15:56;90.33;;;62.93;;
22677;SDS011;26259;50.214;18.620;2022-09-25T02:18:28;101.10;;;64.50;;
22677;SDS011;26259;50.214;18.620;2022-09-25T02:29:15;100.67;;;66.63;;
22677;SDS011;26259;50.214;18.620;2022-09-25T02:31:43;97.27;;;63.37;;
22677;SDS011;26259;50.214;18.620;2022-09-25T02:34:17;96.47;;;65.80;;
22677;SDS011;26259;50.214;18.620;2022-09-25T02:36:43;108.10;;;67.30;;
22677;SDS011;26259;50.214;18.620;2022-09-25T02:41:48;100.90;;;64.20;;
22677;SDS011;26259;50.214;18.620;2022-09-25T02:47:21;90.93;;;61.97;;
22677;SDS011;26259;50.214;18.620;2022-09-25T02:50:05;98.80;;;60.87;;
22677;SDS011;26259;50.214;18.620;2022-09-25T02:56:13;86.33;;;58.57;;
22677;SDS011;26259;50.214;18.620;2022-09-25T02:59:02;89.10;;;59.40;;
22677;SDS011;26259;50.214;18.620;2022-09-25T03:01:33;82.83;;;58.33;;
22677;SDS011;26259;50.214;18.620;2022-09-25T03:04:02;84.37;;;58.10;;
22677;SDS011;26259;50.214;18.620;2022-09-25T03:06:29;89.03;;;59.37;;
22677;SDS011;26259;50.214;18.620;2022-09-25T03:08:57;92.93;;;60.50;;
22677;SDS011;26259;50.214;18.620;2022-09-25T03:11:25;96.97;;;63.73;;
22677;SDS011;26259;50.214;18.620;2022-09-25T03:14:09;100.03;;;64.30;;
22677;SDS011;26259;50.214;18.620;2022-09-25T03:16:37;90.53;;;60.50;;
22677;SDS011;26259;50.214;18.620;2022-09-25T03:19:17;92.73;;;61.27;;
22677;SDS011;26259;50.214;18.620;2022-09-25T03:21:46;93.97;;;62.93;;
22677;SDS011;26259;50.214;18.620;2022-09-25T03:24:12;93.67;;;61.77;;
22677;SDS011;26259;50.214;18.620;2022-09-25T03:26:39;101.17;;;65.13;;
22677;SDS011;26259;50.214;18.620;2022-09-25T03:29:05;104.00;;;66.33;;
22677;SDS011;26259;50.214;18.620;2022-09-25T03:31:31;103.63;;;63.63;;
22677;SDS011;26259;50.214;18.620;2022-09-25T03:33:58;97.33;;;65.47;;
22677;SDS011;26259;50.214;18.620;2022-09-25T03:36:25;95.83;;;66.50;;
22677;SDS011;26259;50.214;18.620;2022-09-25T03:38:52;104.03;;;68.57;;
22677;SDS011;26259;50.214;18.620;2022-09-25T03:41:23;102.03;;;70.13;;
22677;SDS011;26259;50.214;18.620;2022-09-25T03:43:50;107.17;;;71.57;;
22677;SDS011;26259;50.214;18.620;2022-09-25T03:46:19;109.93;;;72.93;;
22677;SDS011;26259;50.214;18.620;2022-09-25T03:48:46;106.93;;;72.10;;
22677;SDS011;26259;50.214;18.620;2022-09-25T03:58:50;104.30;;;69.30;;
22677;SDS011;26259;50.214;18.620;2022-09-25T04:01:20;103.20;;;70.90;;
22677;SDS011;26259;50.214;18.620;2022-09-25T04:03:47;100.23;;;65.70;;
22677;SDS011;26259;50.214;18.620;2022-09-25T04:06:14;92.87;;;63.37;;
22677;SDS011;26259;50.214;18.620;2022-09-25T04:08:42;99.43;;;65.70;;
22677;SDS011;26259;50.214;18.620;2022-09-25T04:11:08;96.53;;;66.00;;
22677;SDS011;26259;50.214;18.620;2022-09-25T04:16:09;92.80;;;63.47;;
22677;SDS011;26259;50.214;18.620;2022-09-25T04:18:36;95.10;;;66.73;;
22677;SDS011;26259;50.214;18.620;2022-09-25T04:23:37;94.97;;;64.23;;
22677;SDS011;26259;50.214;18.620;2022-09-25T04:26:03;93.00;;;64.90;;
22677;SDS011;26259;50.214;18.620;2022-09-25T04:28:29;93.17;;;64.30;;
22677;SDS011;26259;50.214;18.620;2022-09-25T04:30:56;95.93;;;63.67;;
22677;SDS011;26259;50.214;18.620;2022-09-25T04:33:21;86.17;;;62.10;;
22677;SDS011;26259;50.214;18.620;2022-09-25T04:36:05;99.03;;;64.03;;
22677;SDS011;26259;50.214;18.620;2022-09-25T04:38:31;92.67;;;63.10;;
22677;SDS011;26259;50.214;18.620;2022-09-25T04:40:57;94.23;;;66.40;;
22677;SDS011;26259;50.214;18.620;2022-09-25T04:43:24;104.67;;;69.67;;
22677;SDS011;26259;50.214;18.620;2022-09-25T04:45:51;95.70;;;65.20;;
22677;SDS011;26259;50.214;18.620;2022-09-25T04:50:52;96.27;;;66.67;;
22677;SDS011;26259;50.214;18.620;2022-09-25T04:53:18;94.13;;;65.47;;
22677;SDS011;26259;50.214;18.620;2022-09-25T04:55:43;99.50;;;64.80;;
22677;SDS011;26259;50.214;18.620;2022-09-25T04:58:12;95.93;;;63.93;;
22677;SDS011;26259;50.214;18.620;2022-09-25T05:00:37;93.37;;;63.30;;
22677;SDS011;26259;50.214;18.620;2022-09-25T05:03:04;95.83;;;66.17;;
22677;SDS011;26259;50.214;18.620;2022-09-25T05:05:30;99.50;;;68.93;;
22677;SDS011;26259;50.214;18.620;2022-09-25T05:07:57;108.77;;;72.23;;
22677;SDS011;26259;50.214;18.620;2022-09-25T05:10:25;144.97;;;101.80;;
22677;SDS011;26259;50.214;18.620;2022-09-25T05:12:56;113.87;;;82.03;;
22677;SDS011;26259;50.214;18.620;2022-09-25T05:20:34;100.40;;;74.23;;
22677;SDS011;26259;50.214;18.620;2022-09-25T05:23:00;103.27;;;74.57;;
22677;SDS011;26259;50.214;18.620;2022-09-25T05:30:35;106.87;;;81.33;;
22677;SDS011;26259;50.214;18.620;2022-09-25T05:33:02;91.70;;;67.57;;
22677;SDS011;26259;50.214;18.620;2022-09-25T05:35:30;85.07;;;61.80;;
22677;SDS011;26259;50.214;18.620;2022-09-25T05:37:57;96.13;;;63.53;;
22677;SDS011;26259;50.214;18.620;2022-09-25T05:40:22;83.57;;;60.57;;
22677;SDS011;26259;50.214;18.620;2022-09-25T05:42:49;79.17;;;58.87;;
22677;SDS011;26259;50.214;18.620;2022-09-25T05:45:16;82.17;;;59.67;;
22677;SDS011;26259;50.214;18.620;2022-09-25T05:47:43;80.17;;;57.93;;
22677;SDS011;26259;50.214;18.620;2022-09-25T05:50:09;79.87;;;57.17;;
22677;SDS011;26259;50.214;18.620;2022-09-25T05:52:37;81.23;;;58.30;;
22677;SDS011;26259;50.214;18.620;2022-09-25T05:55:03;102.07;;;76.83;;
22677;SDS011;26259;50.214;18.620;2022-09-25T05:57:30;92.63;;;65.40;;
22677;SDS011;26259;50.214;18.620;2022-09-25T05:59:57;85.13;;;62.07;;
22677;SDS011;26259;50.214;18.620;2022-09-25T06:02:23;84.17;;;57.17;;
22677;SDS011;26259;50.214;18.620;2022-09-25T06:04:49;73.83;;;52.00;;
22677;SDS011;26259;50.214;18.620;2022-09-25T06:07:14;75.33;;;54.90;;
22677;SDS011;26259;50.214;18.620;2022-09-25T06:09:40;80.53;;;56.40;;
22677;SDS011;26259;50.214;18.620;2022-09-25T06:12:05;74.43;;;52.53;;
22677;SDS011;26259;50.214;18.620;2022-09-25T06:14:31;72.83;;;53.13;;
22677;SDS011;26259;50.214;18.620;2022-09-25T06:16:59;77.97;;;54.83;;
22677;SDS011;26259;50.214;18.620;2022-09-25T06:19:25;67.87;;;52.27;;
22677;SDS011;26259;50.214;18.620;2022-09-25T06:21:53;66.70;;;47.77;;
22677;SDS011;26259;50.214;18.620;2022-09-25T06:24:19;67.57;;;48.73;;
22677;SDS011;26259;50.214;18.620;2022-09-25T06:26:44;68.80;;;48.97;;
22677;SDS011;26259;50.214;18.620;2022-09-25T06:29:10;65.20;;;49.33;;
22677;SDS011;26259;50.214;18.620;2022-09-25T06:34:08;80.67;;;62.47;;
22677;SDS011;26259;50.214;18.620;2022-09-25T06:36:34;73.43;;;53.10;;
22677;SDS011;26259;50.214;18.620;2022-09-25T06:39:00;77.50;;;58.27;;
22677;SDS011;26259;50.214;18.620;2022-09-25T06:41:26;69.07;;;52.43;;
22677;SDS011;26259;50.214;18.620;2022-09-25T06:43:51;65.10;;;48.17;;
22677;SDS011;26259;50.214;18.620;2022-09-25T06:46:17;65.67;;;46.70;;
22677;SDS011;26259;50.214;18.620;2022-09-25T06:48:51;59.33;;;46.03;;
22677;SDS011;26259;50.214;18.620;2022-09-25T06:51:20;62.00;;;48.03;;
22677;SDS011;26259;50.214;18.620;2022-09-25T06:53:46;63.90;;;48.20;;
22677;SDS011;26259;50.214;18.620;2022-09-25T06:56:12;58.77;;;44.30;;
22677;SDS011;26259;50.214;18.620;2022-09-25T06:58:38;57.17;;;42.43;;
22677;SDS011;26259;50.214;18.620;2022-09-25T07:01:03;55.90;;;41.03;;
22677;SDS011;26259;50.214;18.620;2022-09-25T07:03:34;90.33;;;76.57;;
22677;SDS011;26259;50.214;18.620;2022-09-25T07:06:09;63.53;;;49.87;;
22677;SDS011;26259;50.214;18.620;2022-09-25T07:08:36;53.60;;;41.70;;
22677;SDS011;26259;50.214;18.620;2022-09-25T07:11:02;53.43;;;38.97;;
22677;SDS011;26259;50.214;18.620;2022-09-25T07:13:29;49.03;;;36.73;;
22677;SDS011;26259;50.214;18.620;2022-09-25T07:16:00;50.07;;;35.67;;
22677;SDS011;26259;50.214;18.620;2022-09-25T07:18:26;47.13;;;36.53;;
22677;SDS011;26259;50.214;18.620;2022-09-25T07:44:10;27.43;;;23.27;;
22677;SDS011;26259;50.214;18.620;2022-09-25T07:46:36;31.33;;;22.93;;
22677;SDS011;26259;50.214;18.620;2022-09-25T07:49:06;27.40;;;22.20;;
22677;SDS011;26259;50.214;18.620;2022-09-25T09:21:31;18.83;;;13.47;;
22677;SDS011;26259;50.214;18.620;2022-09-25T09:30:01;19.00;;;15.27;;
22677;SDS011;26259;50.214;18.620;2022-09-25T09:33:02;18.07;;;14.90;;
22677;SDS011;26259;50.214;18.620;2022-09-25T09:36:01;19.33;;;15.50;;
22677;SDS011;26259;50.214;18.620;2022-09-25T09:38:45;19.30;;;15.97;;
22677;SDS011;26259;50.214;18.620;2022-09-25T09:41:50;21.10;;;15.17;;
22677;SDS011;26259;50.214;18.620;2022-09-25T09:47:45;41.73;;;29.70;;
22677;SDS011;26259;50.214;18.620;2022-09-25T09:53:22;17.70;;;14.00;;
22677;SDS011;26259;50.214;18.620;2022-09-25T09:55:56;18.07;;;14.00;;
22677;SDS011;26259;50.214;18.620;2022-09-25T09:58:31;15.37;;;13.23;;
22677;SDS011;26259;50.214;18.620;2022-09-25T10:01:07;17.13;;;12.83;;
22677;SDS011;26259;50.214;18.620;2022-09-25T10:03:35;14.13;;;11.63;;
22677;SDS011;26259;50.214;18.620;2022-09-25T10:06:04;12.73;;;10.77;;
22677;SDS011;26259;50.214;18.620;2022-09-25T10:08:35;17.03;;;11.93;;
22677;SDS011;26259;50.214;18.620;2022-09-25T10:11:03;16.60;;;13.07;;
22677;SDS011;26259;50.214;18.620;2022-09-25T10:13:35;16.80;;;12.60;;
22677;SDS011;26259;50.214;18.620;2022-09-25T10:18:39;15.27;;;11.67;;
22677;SDS011;26259;50.214;18.620;2022-09-25T10:21:26;13.40;;;10.57;;
22677;SDS011;26259;50.214;18.620;2022-09-25T10:23:55;13.43;;;10.37;;
22677;SDS011;26259;50.214;18.620;2022-09-25T10:26:30;22.47;;;16.50;;
22677;SDS011;26259;50.214;18.620;2022-09-25T10:29:04;15.13;;;12.40;;
22677;SDS011;26259;50.214;18.620;2022-09-25T10:31:45;12.73;;;10.13;;
22677;SDS011;26259;50.214;18.620;2022-09-25T10:34:18;14.57;;;12.47;;
22677;SDS011;26259;50.214;18.620;2022-09-25T10:36:50;14.43;;;11.53;;
22677;SDS011;26259;50.214;18.620;2022-09-25T10:39:23;17.17;;;11.60;;
22677;SDS011;26259;50.214;18.620;2022-09-25T10:41:54;12.60;;;10.53;;
22677;SDS011;26259;50.214;18.620;2022-09-25T10:44:30;14.87;;;11.43;;
22677;SDS011;26259;50.214;18.620;2022-09-25T10:46:59;18.40;;;12.23;;
22677;SDS011;26259;50.214;18.620;2022-09-25T10:52:47;17.53;;;11.37;;
22677;SDS011;26259;50.214;18.620;2022-09-25T10:57:51;16.03;;;10.97;;
22677;SDS011;26259;50.214;18.620;2022-09-25T11:00:30;14.53;;;10.53;;
22677;SDS011;26259;50.214;18.620;2022-09-25T11:03:02;13.53;;;10.30;;
22677;SDS011;26259;50.214;18.620;2022-09-25T11:05:31;21.47;;;12.37;;
22677;SDS011;26259;50.214;18.620;2022-09-25T11:07:59;15.30;;;10.93;;
22677;SDS011;26259;50.214;18.620;2022-09-25T11:10:30;13.00;;;9.47;;
22677;SDS011;26259;50.214;18.620;2022-09-25T11:13:00;12.30;;;9.27;;
22677;SDS011;26259;50.214;18.620;2022-09-25T11:15:31;10.93;;;8.43;;
22677;SDS011;26259;50.214;18.620;2022-09-25T11:17:58;15.93;;;9.37;;
22677;SDS011;26259;50.214;18.620;2022-09-25T11:20:28;11.70;;;9.00;;
22677;SDS011;26259;50.214;18.620;2022-09-25T11:25:43;11.33;;;7.63;;
22677;SDS011;26259;50.214;18.620;2022-09-25T11:37:18;12.57;;;8.63;;
22677;SDS011;26259;50.214;18.620;2022-09-25T11:39:53;9.87;;;8.80;;
22677;SDS011;26259;50.214;18.620;2022-09-25T11:42:58;12.87;;;8.07;;
22677;SDS011;26259;50.214;18.620;2022-09-25T11:45:33;9.87;;;7.63;;
22677;SDS011;26259;50.214;18.620;2022-09-25T11:48:11;12.23;;;8.83;;
22677;SDS011;26259;50.214;18.620;2022-09-25T11:50:56;19.90;;;8.73;;
22677;SDS011;26259;50.214;18.620;2022-09-25T11:56:35;12.50;;;7.90;;
22677;SDS011;26259;50.214;18.620;2022-09-25T11:59:15;11.43;;;7.43;;
22677;SDS011;26259;50.214;18.620;2022-09-25T12:01:53;8.77;;;6.77;;
22677;SDS011;26259;50.214;18.620;2022-09-25T12:05:15;9.67;;;6.27;;
22677;SDS011;26259;50.214;18.620;2022-09-25T12:16:59;9.70;;;6.10;;
22677;SDS011;26259;50.214;18.620;2022-09-25T12:19:05;8.37;;;6.30;;
22677;SDS011;26259;50.214;18.620;2022-09-25T12:21:43;7.17;;;5.63;;
22677;SDS011;26259;50.214;18.620;2022-09-25T12:24:27;8.00;;;5.47;;
22677;SDS011;26259;50.214;18.620;2022-09-25T12:27:12;9.80;;;5.90;;
22677;SDS011;26259;50.214;18.620;2022-09-25T12:37:48;8.07;;;5.47;;
22677;SDS011;26259;50.214;18.620;2022-09-25T12:40:30;6.43;;;5.30;;
22677;SDS011;26259;50.214;18.620;2022-09-25T12:43:23;6.63;;;5.10;;
22677;SDS011;26259;50.214;18.620;2022-09-25T12:48:50;5.90;;;4.80;;
22677;SDS011;26259;50.214;18.620;2022-09-25T12:51:39;6.00;;;4.87;;
22677;SDS011;26259;50.214;18.620;2022-09-25T12:59:40;8.07;;;5.27;;
22677;SDS011;26259;50.214;18.620;2022-09-25T13:04:59;5.57;;;4.40;;
22677;SDS011;26259;50.214;18.620;2022-09-25T13:13:09;10.77;;;4.93;;
22677;SDS011;26259;50.214;18.620;2022-09-25T13:15:43;9.67;;;5.87;;
22677;SDS011;26259;50.214;18.620;2022-09-25T13:18:15;10.97;;;5.97;;
22677;SDS011;26259;50.214;18.620;2022-09-25T13:20:50;7.93;;;6.07;;
22677;SDS011;26259;50.214;18.620;2022-09-25T13:23:32;7.20;;;5.17;;
22677;SDS011;26259;50.214;18.620;2022-09-25T13:26:10;6.80;;;5.40;;
22677;SDS011;26259;50.214;18.620;2022-09-25T13:28:46;8.07;;;5.40;;
22677;SDS011;26259;50.214;18.620;2022-09-25T13:31:22;10.63;;;5.67;;
22677;SDS011;26259;50.214;18.620;2022-09-25T13:33:52;7.87;;;5.60;;
22677;SDS011;26259;50.214;18.620;2022-09-25T13:36:32;7.87;;;5.83;;
22677;SDS011;26259;50.214;18.620;2022-09-25T13:39:02;8.27;;;5.90;;
22677;SDS011;26259;50.214;18.620;2022-09-25T13:44:37;8.40;;;6.03;;
22677;SDS011;26259;50.214;18.620;2022-09-25T14:00:25;7.13;;;5.00;;
22677;SDS011;26259;50.214;18.620;2022-09-25T14:03:27;6.93;;;5.00;;
22677;SDS011;26259;50.214;18.620;2022-09-25T14:06:09;8.67;;;5.43;;
22677;SDS011;26259;50.214;18.620;2022-09-25T14:08:39;7.70;;;5.30;;
22677;SDS011;26259;50.214;18.620;2022-09-25T14:11:07;9.03;;;5.63;;
22677;SDS011;26259;50.214;18.620;2022-09-25T14:13:35;6.93;;;5.10;;
22677;SDS011;26259;50.214;18.620;2022-09-25T14:16:03;7.33;;;5.40;;
22677;SDS011;26259;50.214;18.620;2022-09-25T14:18:38;10.00;;;5.40;;
22677;SDS011;26259;50.214;18.620;2022-09-25T14:21:05;6.70;;;5.27;;
22677;SDS011;26259;50.214;18.620;2022-09-25T14:23:33;8.87;;;5.73;;
22677;SDS011;26259;50.214;18.620;2022-09-25T14:28:49;11.27;;;6.00;;
22677;SDS011;26259;50.214;18.620;2022-09-25T14:41:39;7.57;;;6.37;;
22677;SDS011;26259;50.214;18.620;2022-09-25T14:47:00;9.07;;;5.90;;
22677;SDS011;26259;50.214;18.620;2022-09-25T14:49:28;8.73;;;6.20;;
22677;SDS011;26259;50.214;18.620;2022-09-25T14:51:55;8.97;;;5.77;;
22677;SDS011;26259;50.214;18.620;2022-09-25T14:54:27;9.53;;;5.90;;
22677;SDS011;26259;50.214;18.620;2022-09-25T14:59:36;7.47;;;5.57;;
22677;SDS011;26259;50.214;18.620;2022-09-25T15:02:15;9.17;;;5.87;;
22677;SDS011;26259;50.214;18.620;2022-09-25T15:04:47;11.10;;;5.63;;
22677;SDS011;26259;50.214;18.620;2022-09-25T15:09:49;8.53;;;5.87;;
22677;SDS011;26259;50.214;18.620;2022-09-25T15:17:31;8.47;;;6.50;;
22677;SDS011;26259;50.214;18.620;2022-09-25T15:20:02;7.93;;;5.97;;
22677;SDS011;26259;50.214;18.620;2022-09-25T15:22:33;6.87;;;6.10;;
22677;SDS011;26259;50.214;18.620;2022-09-25T15:27:39;7.53;;;6.23;;
22677;SDS011;26259;50.214;18.620;2022-09-25T15:32:36;9.80;;;6.20;;
22677;SDS011;26259;50.214;18.620;2022-09-25T15:37:41;20.13;;;14.83;;
22677;SDS011;26259;50.214;18.620;2022-09-25T15:40:28;27.10;;;19.57;;
22677;SDS011;26259;50.214;18.620;2022-09-25T15:42:53;34.90;;;26.63;;
22677;SDS011;26259;50.214;18.620;2022-09-25T15:47:56;14.90;;;9.23;;
22677;SDS011;26259;50.214;18.620;2022-09-25T15:50:24;16.20;;;10.60;;
22677;SDS011;26259;50.214;18.620;2022-09-25T15:52:53;11.53;;;9.40;;
22677;SDS011;26259;50.214;18.620;2022-09-25T15:55:20;29.83;;;23.53;;
22677;SDS011;26259;50.214;18.620;2022-09-25T15:57:50;30.70;;;23.33;;
22677;SDS011;26259;50.214;18.620;2022-09-25T16:00:23;14.47;;;11.83;;
22677;SDS011;26259;50.214;18.620;2022-09-25T16:05:44;12.93;;;10.80;;
22677;SDS011;26259;50.214;18.620;2022-09-25T16:13:29;10.20;;;9.00;;
22677;SDS011;26259;50.214;18.620;2022-09-25T16:15:54;11.10;;;8.77;;
22677;SDS011;26259;50.214;18.620;2022-09-25T16:23:55;13.03;;;8.83;;
22677;SDS011;26259;50.214;18.620;2022-09-25T16:26:22;12.93;;;9.20;;
22677;SDS011;26259;50.214;18.620;2022-09-25T16:29:00;13.83;;;9.60;;
22677;SDS011;26259;50.214;18.620;2022-09-25T16:31:29;11.60;;;9.63;;
22677;SDS011;26259;50.214;18.620;2022-09-25T16:33:56;25.50;;;14.67;;
22677;SDS011;26259;50.214;18.620;2022-09-25T16:36:24;15.83;;;11.00;;
22677;SDS011;26259;50.214;18.620;2022-09-25T16:41:33;13.60;;;10.77;;
22677;SDS011;26259;50.214;18.620;2022-09-25T16:46:38;14.63;;;11.57;;
22677;SDS011;26259;50.214;18.620;2022-09-25T16:49:08;14.57;;;11.13;;
22677;SDS011;26259;50.214;18.620;2022-09-25T16:51:36;15.00;;;10.73;;
22677;SDS011;26259;50.214;18.620;2022-09-25T16:54:02;15.50;;;11.43;;
22677;SDS011;26259;50.214;18.620;2022-09-25T16:56:29;15.00;;;12.70;;
22677;SDS011;26259;50.214;18.620;2022-09-25T16:58:55;25.33;;;16.70;;
22677;SDS011;26259;50.214;18.620;2022-09-25T17:01:23;23.77;;;16.63;;
22677;SDS011;26259;50.214;18.620;2022-09-25T17:03:50;27.97;;;17.60;;
22677;SDS011;26259;50.214;18.620;2022-09-25T17:06:17;24.77;;;17.27;;
22677;SDS011;26259;50.214;18.620;2022-09-25T17:08:43;21.93;;;16.40;;
22677;SDS011;26259;50.214;18.620;2022-09-25T17:11:10;18.13;;;13.40;;
22677;SDS011;26259;50.214;18.620;2022-09-25T17:13:36;22.50;;;16.30;;
22677;SDS011;26259;50.214;18.620;2022-09-25T17:16:02;15.13;;;12.30;;
22677;SDS011;26259;50.214;18.620;2022-09-25T17:18:28;17.07;;;12.70;;
22677;SDS011;26259;50.214;18.620;2022-09-25T17:20:54;17.83;;;13.70;;
22677;SDS011;26259;50.214;18.620;2022-09-25T17:23:21;18.57;;;14.33;;
22677;SDS011;26259;50.214;18.620;2022-09-25T17:25:49;17.93;;;13.83;;
22677;SDS011;26259;50.214;18.620;2022-09-25T17:28:21;24.83;;;16.57;;
22677;SDS011;26259;50.214;18.620;2022-09-25T17:30:46;24.30;;;18.63;;
22677;SDS011;26259;50.214;18.620;2022-09-25T17:33:13;18.67;;;15.37;;
22677;SDS011;26259;50.214;18.620;2022-09-25T17:35:43;26.73;;;15.17;;
22677;SDS011;26259;50.214;18.620;2022-09-25T17:38:24;21.70;;;15.03;;
22677;SDS011;26259;50.214;18.620;2022-09-25T17:40:51;22.13;;;15.90;;
22677;SDS011;26259;50.214;18.620;2022-09-25T17:43:20;27.87;;;17.93;;
22677;SDS011;26259;50.214;18.620;2022-09-25T17:45:47;20.90;;;17.00;;
22677;SDS011;26259;50.214;18.620;2022-09-25T17:48:24;24.30;;;17.20;;
22677;SDS011;26259;50.214;18.620;2022-09-25T17:50:54;21.47;;;18.83;;
22677;SDS011;26259;50.214;18.620;2022-09-25T17:53:26;21.07;;;18.47;;
22677;SDS011;26259;50.214;18.620;2022-09-25T17:55:53;27.67;;;20.67;;
22677;SDS011;26259;50.214;18.620;2022-09-25T17:58:20;36.70;;;25.83;;
22677;SDS011;26259;50.214;18.620;2022-09-25T18:00:47;30.47;;;27.10;;
22677;SDS011;26259;50.214;18.620;2022-09-25T18:03:13;31.87;;;25.77;;
22677;SDS011;26259;50.214;18.620;2022-09-25T18:05:40;33.27;;;26.73;;
22677;SDS011;26259;50.214;18.620;2022-09-25T18:08:07;29.63;;;23.37;;
22677;SDS011;26259;50.214;18.620;2022-09-25T18:10:34;28.27;;;21.20;;
22677;SDS011;26259;50.214;18.620;2022-09-25T18:13:01;33.33;;;24.97;;
22677;SDS011;26259;50.214;18.620;2022-09-25T18:15:28;30.53;;;22.97;;
22677;SDS011;26259;50.214;18.620;2022-09-25T18:17:54;31.93;;;23.17;;
22677;SDS011;26259;50.214;18.620;2022-09-25T18:20:20;27.97;;;23.43;;
22677;SDS011;26259;50.214;18.620;2022-09-25T18:23:05;30.87;;;24.60;;
22677;SDS011;26259;50.214;18.620;2022-09-25T18:25:31;35.93;;;26.43;;
22677;SDS011;26259;50.214;18.620;2022-09-25T18:28:00;38.80;;;29.10;;
22677;SDS011;26259;50.214;18.620;2022-09-25T18:30:26;38.97;;;29.77;;
22677;SDS011;26259;50.214;18.620;2022-09-25T18:32:52;38.03;;;31.47;;
22677;SDS011;26259;50.214;18.620;2022-09-25T18:35:18;38.77;;;33.63;;
22677;SDS011;26259;50.214;18.620;2022-09-25T18:37:45;42.63;;;34.17;;
22677;SDS011;26259;50.214;18.620;2022-09-25T18:40:11;44.27;;;35.63;;
22677;SDS011;26259;50.214;18.620;2022-09-25T18:42:39;69.97;;;55.57;;
22677;SDS011;26259;50.214;18.620;2022-09-25T18:45:05;74.33;;;59.73;;
22677;SDS011;26259;50.214;18.620;2022-09-25T18:47:31;60.57;;;46.10;;
22677;SDS011;26259;50.214;18.620;2022-09-25T18:49:58;45.97;;;34.80;;
22677;SDS011;26259;50.214;18.620;2022-09-25T18:52:24;39.23;;;31.90;;
22677;SDS011;26259;50.214;18.620;2022-09-25T18:54:50;36.63;;;29.03;;
22677;SDS011;26259;50.214;18.620;2022-09-25T18:57:15;33.83;;;28.23;;
22677;SDS011;26259;50.214;18.620;2022-09-25T18:59:42;41.87;;;30.90;;
22677;SDS011;26259;50.214;18.620;2022-09-25T19:02:18;40.60;;;29.73;;
22677;SDS011;26259;50.214;18.620;2022-09-25T19:04:46;49.23;;;36.37;;
22677;SDS011;26259;50.214;18.620;2022-09-25T19:07:12;48.47;;;36.03;;
22677;SDS011;26259;50.214;18.620;2022-09-25T19:09:38;49.50;;;37.13;;
22677;SDS011;26259;50.214;18.620;2022-09-25T19:12:03;55.93;;;40.47;;
22677;SDS011;26259;50.214;18.620;2022-09-25T19:14:33;48.43;;;34.97;;
22677;SDS011;26259;50.214;18.620;2022-09-25T19:16:59;48.53;;;37.87;;
22677;SDS011;26259;50.214;18.620;2022-09-25T19:19:25;65.27;;;44.40;;
22677;SDS011;26259;50.214;18.620;2022-09-25T19:21:53;65.70;;;44.90;;
22677;SDS011;26259;50.214;18.620;2022-09-25T19:24:18;63.70;;;46.07;;
22677;SDS011;26259;50.214;18.620;2022-09-25T19:26:44;64.80;;;43.70;;
22677;SDS011;26259;50.214;18.620;2022-09-25T19:29:12;53.17;;;40.73;;
22677;SDS011;26259;50.214;18.620;2022-09-25T19:31:37;53.43;;;43.50;;
22677;SDS011;26259;50.214;18.620;2022-09-25T19:34:03;63.70;;;48.47;;
22677;SDS011;26259;50.214;18.620;2022-09-25T19:36:29;55.07;;;42.53;;
22677;SDS011;26259;50.214;18.620;2022-09-25T19:38:57;82.93;;;55.10;;
22677;SDS011;26259;50.214;18.620;2022-09-25T19:41:25;78.10;;;54.37;;
22677;SDS011;26259;50.214;18.620;2022-09-25T19:44:03;112.93;;;73.10;;
22677;SDS011;26259;50.214;18.620;2022-09-25T19:46:31;105.90;;;71.43;;
22677;SDS011;26259;50.214;18.620;2022-09-25T19:48:57;94.87;;;62.23;;
22677;SDS011;26259;50.214;18.620;2022-09-25T19:51:23;87.33;;;56.80;;